Nanticoke — WDC4353 — position and weather

sailwx.info

Track history (hours):
 
Tides and Currents Weather Stations Pressure Air Temp Water Temp Dewpoint Dewpoint Depression Visibility Wind Speed Wind Dir Waves Ship Positions

Nanticoke

Owner: Vane Line Bunkering, Baltimore, MD. More information available from US FCC via Universal Licensing System and Coast Guard Vessel Documentation Center.

Last reported at 2017-Jan-17 20:34 UTC. Time now 2017-Jan-17 21:26 UTC.
Position N 39°54' W 075°12'.

Length 34 m; draft 4.7 m.

Type: Towing. MMSI: 367023480.

Date/timePositionNaut miles runAvg speedWind from/ knotsBaromVisibWave heightAir tempDewpointWater temp
2017-Jan-17 20:34N 39°54' W 075°12'1 0.6
2017-Jan-17 19:33N 39°54' W 075°12'0 0.0
2017-Jan-17 18:33N 39°54' W 075°12'0 0.0
2017-Jan-17 17:33N 39°54' W 075°12'0 0.0
2017-Jan-17 16:33N 39°54' W 075°12'0 0.0
2017-Jan-17 15:33N 39°54' W 075°12'1 1.3
2017-Jan-17 14:33N 39°52' W 075°12'6 5.8
2017-Jan-17 13:33N 39°51' W 075°20'8 7.9
2017-Jan-17 12:33N 39°46' W 075°28'8 8.0
2017-Jan-17 11:33N 39°39' W 075°33'7 7.5
2017-Jan-17 10:33N 39°32' W 075°33'8 7.6
2017-Jan-17 09:33N 39°24' W 075°30'9 8.8
2017-Jan-17 08:34N 39°18' W 075°23'9 9.1
2017-Jan-17 07:33N 39°10' W 075°16'9 9.1
2017-Jan-17 06:32N 39°03' W 075°10'9 8.8
2017-Jan-17 05:33N 38°54' W 075°05'8 8.2
2017-Jan-17 04:33N 38°48' W 074°58'9 9.2
2017-Jan-17 03:33N 38°53' W 074°48'9 8.7
2017-Jan-17 02:33N 38°60' W 074°41'9 8.5
2017-Jan-17 01:32N 39°05' W 074°33'9 8.7
2017-Jan-17 00:32N 39°12' W 074°26'9 8.5
2017-Jan-16 23:31N 39°19' W 074°18'8 8.2
2017-Jan-16 22:33N 39°25' W 074°12'8 8.2
2017-Jan-16 21:33N 39°32' W 074°07'8 8.3
2017-Jan-16 20:32N 39°40' W 074°02'8 8.3
2017-Jan-16 19:33N 39°47' W 073°58'20 8.4
2017-Jan-16 17:06N 40°07' W 073°55'4 8.1
2017-Jan-16 16:33N 40°12' W 073°54'11 7.7
2017-Jan-16 15:04N 40°23' W 073°54'4 7.8
2017-Jan-16 14:33N 40°27' W 073°54'6 6.3
2017-Jan-16 13:33N 40°31' W 074°00'7 6.6
2017-Jan-16 12:33N 40°38' W 074°03'7 6.8
2017-Jan-16 11:33N 40°43' W 073°58'8 7.6
2017-Jan-16 10:33N 40°48' W 073°50'7 6.9
2017-Jan-16 09:32N 40°53' W 073°43'40 9.1
2017-Jan-16 05:07N 41°07' W 072°53'610.5
2017-Jan-16 04:33N 41°08' W 072°45'1110.8
2017-Jan-16 03:33N 41°10' W 072°31'1211.5
2017-Jan-16 02:33N 41°12' W 072°16'96 7.8
2017-Jan-15 14:16N 42°13' W 070°37'710.0
2017-Jan-15 13:33N 42°18' W 070°43'9 8.9
2017-Jan-15 12:33N 42°23' W 070°53'7 7.1
2017-Jan-15 11:33N 42°22' W 071°03'2 1.5
2017-Jan-15 10:33N 42°23' W 071°01'0 0.1
2017-Jan-15 09:25N 42°23' W 071°02'0 0.0
2017-Jan-15 08:33N 42°23' W 071°02'0 0.0
2017-Jan-15 07:33N 42°23' W 071°02'0 0.0
2017-Jan-15 06:33N 42°23' W 071°02'0 0.0
2017-Jan-15 05:33N 42°23' W 071°02'0 0.0
2017-Jan-15 04:33N 42°23' W 071°02'0 0.0
2017-Jan-15 03:33N 42°23' W 071°02'0 0.0
2017-Jan-15 02:33N 42°23' W 071°02'0 0.0
2017-Jan-15 01:33N 42°23' W 071°02'0 0.0
2017-Jan-15 00:33N 42°23' W 071°02'0 0.0
2017-Jan-14 23:33N 42°23' W 071°02'0 0.0
2017-Jan-14 22:33N 42°23' W 071°02'0 0.0
2017-Jan-14 21:33N 42°23' W 071°02'3 2.8
2017-Jan-14 20:33N 42°20' W 071°00'7 6.5
2017-Jan-14 19:33N 42°24' W 070°53'5 5.3
2017-Jan-14 18:33N 42°21' W 070°46'8 7.6
2017-Jan-14 17:33N 42°15' W 070°40'96 4.0
2017-Jan-13 17:11N 41°12' W 072°18'5 8.1
2017-Jan-13 16:33N 41°11' W 072°24'7 7.3
2017-Jan-13 15:33N 41°10' W 072°34'7 6.8
2017-Jan-13 14:32N 41°08' W 072°43'47 2.9
2017-Jan-12 22:27N 40°54' W 073°42'7 8.1
2017-Jan-12 21:32N 40°48' W 073°49'7 6.9
2017-Jan-12 20:33N 40°46' W 073°57'6 6.0
2017-Jan-12 19:33N 40°41' W 074°01'2 1.9
2017-Jan-12 18:33N 40°39' W 074°03'0 0.0
2017-Jan-12 17:33N 40°39' W 074°03'0 0.0
2017-Jan-12 16:33N 40°39' W 074°03'0 0.1
2017-Jan-12 15:33N 40°40' W 074°03'0 0.1
2017-Jan-12 14:33N 40°40' W 074°03'0 0.0
2017-Jan-12 13:33N 40°40' W 074°03'0 0.0
2017-Jan-12 12:33N 40°40' W 074°03'0 0.0
2017-Jan-12 11:33N 40°40' W 074°03'0 0.0
2017-Jan-12 10:33N 40°40' W 074°03'0 0.2
2017-Jan-12 09:33N 40°39' W 074°03'0 0.0
2017-Jan-12 08:33N 40°39' W 074°03'0 0.0
2017-Jan-12 07:33N 40°39' W 074°03'0 0.0
2017-Jan-12 06:33N 40°39' W 074°03'0 0.0
2017-Jan-12 05:33N 40°39' W 074°03'0 0.0
2017-Jan-12 04:33N 40°39' W 074°03'0 0.0
2017-Jan-12 03:33N 40°39' W 074°03'0 0.2
2017-Jan-12 02:33N 40°40' W 074°03'0 0.0
2017-Jan-12 01:33N 40°40' W 074°03'0 0.0
2017-Jan-12 00:33N 40°40' W 074°03'0 0.1
2017-Jan-11 23:33N 40°40' W 074°03'0 0.1
2017-Jan-11 22:33N 40°40' W 074°03'0 0.2
2017-Jan-11 21:33N 40°39' W 074°03'0 0.1
2017-Jan-11 20:33N 40°39' W 074°03'0 0.0
2017-Jan-11 19:33N 40°39' W 074°03'0 0.0
2017-Jan-11 18:33N 40°39' W 074°03'0 0.0
2017-Jan-11 17:33N 40°39' W 074°03'0 0.0
2017-Jan-11 16:33N 40°39' W 074°03'0 0.1
2017-Jan-11 15:33N 40°39' W 074°03'0 0.1
2017-Jan-11 14:33N 40°40' W 074°03'0 0.1
2017-Jan-11 13:33N 40°40' W 074°03'0 0.0
2017-Jan-11 12:33N 40°40' W 074°03'0 0.0
2017-Jan-11 11:33N 40°40' W 074°03'0 0.0
2017-Jan-11 10:33N 40°40' W 074°03'0 0.0
2017-Jan-11 09:33N 40°40' W 074°03'0 0.0
2017-Jan-11 08:33N 40°40' W 074°03'0 0.2
2017-Jan-11 07:33N 40°39' W 074°03'0 0.1
2017-Jan-11 06:33N 40°39' W 074°03'0 0.0
2017-Jan-11 05:33N 40°39' W 074°03'0 0.0
2017-Jan-11 04:33N 40°39' W 074°03'0 0.0
2017-Jan-11 03:33N 40°39' W 074°03'2 1.6
2017-Jan-11 02:33N 40°38' W 074°03'4 4.3
2017-Jan-11 01:33N 40°34' W 074°02'6 6.0
2017-Jan-11 00:33N 40°30' W 073°56'7 6.5
2017-Jan-10 23:32N 40°23' W 073°53'40 7.9
2017-Jan-10 18:30N 39°44' W 073°59'8 7.8
2017-Jan-10 17:30N 39°37' W 074°03'9 7.7
2017-Jan-10 16:21N 39°29' W 074°09'7 7.7
2017-Jan-10 15:26N 39°23' W 074°13'7 7.6
2017-Jan-10 14:30N 39°18' W 074°19'7 7.7
2017-Jan-10 13:33N 39°12' W 074°25'8 7.8
2017-Jan-10 12:32N 39°06' W 074°32'8 7.5
2017-Jan-10 11:27N 39°01' W 074°40'21 4.2
2017-Jan-10 06:31N 38°55' W 075°05'8 8.0
2017-Jan-10 05:33N 39°02' W 075°10'9 9.4
2017-Jan-10 04:33N 39°10' W 075°16'10 9.9
2017-Jan-10 03:33N 39°18' W 075°23'9 8.9
2017-Jan-10 02:33N 39°25' W 075°31'7 6.9
2017-Jan-10 01:33N 39°31' W 075°33'6 6.2
2017-Jan-10 00:33N 39°38' W 075°35'6 6.5
2017-Jan-09 23:33N 39°43' W 075°30'7 7.4
2017-Jan-09 22:33N 39°49' W 075°24'5 4.5
2017-Jan-09 21:33N 39°51' W 075°19'6 5.8
2017-Jan-09 20:33N 39°54' W 075°12'0 0.0
2017-Jan-09 19:33N 39°54' W 075°12'0 0.0
2017-Jan-09 18:33N 39°54' W 075°12'0 0.0
2017-Jan-09 17:33N 39°54' W 075°12'0 0.0
2017-Jan-09 16:33N 39°54' W 075°12'0 0.0
2017-Jan-09 15:33N 39°54' W 075°12'0 0.0
2017-Jan-09 14:33N 39°54' W 075°12'0 0.0
2017-Jan-09 13:33N 39°54' W 075°12'0 0.0
2017-Jan-09 12:33N 39°54' W 075°12'0 0.0
2017-Jan-09 11:33N 39°54' W 075°12'0 0.0
2017-Jan-09 10:33N 39°54' W 075°12'0 0.0
2017-Jan-09 09:33N 39°54' W 075°12'0 0.0
2017-Jan-09 08:33N 39°54' W 075°12'0 0.0
2017-Jan-09 07:33N 39°54' W 075°12'4 3.6
2017-Jan-09 06:33N 39°51' W 075°15'7 7.1
2017-Jan-09 05:33N 39°49' W 075°24'1 0.5
2017-Jan-09 04:33N 39°48' W 075°24'0 0.1
2017-Jan-09 03:33N 39°48' W 075°24'0 0.0
2017-Jan-09 02:33N 39°48' W 075°24'0 0.0
2017-Jan-09 01:33N 39°48' W 075°24'0 0.0
2017-Jan-09 00:33N 39°48' W 075°24'0 0.0
2017-Jan-08 23:33N 39°48' W 075°24'0 0.0
2017-Jan-08 22:33N 39°48' W 075°24'0 0.0
2017-Jan-08 21:33N 39°48' W 075°24'0 0.0
2017-Jan-08 20:33N 39°48' W 075°24'0 0.1
2017-Jan-08 19:33N 39°48' W 075°24'0 0.0
2017-Jan-08 18:33N 39°48' W 075°24'0 0.0
2017-Jan-08 17:33N 39°48' W 075°24'0 0.0
2017-Jan-08 16:33N 39°48' W 075°24'0 0.0
2017-Jan-08 15:33N 39°48' W 075°24'0 0.0
2017-Jan-08 14:33N 39°48' W 075°24'0 0.0
2017-Jan-08 13:33N 39°48' W 075°24'0 0.0
2017-Jan-08 12:33N 39°48' W 075°24'0 0.0
2017-Jan-08 11:33N 39°48' W 075°24'0 0.0
2017-Jan-08 10:33N 39°48' W 075°24'0 0.0
2017-Jan-08 09:33N 39°48' W 075°24'0 0.1
2017-Jan-08 08:33N 39°48' W 075°24'0 0.1
2017-Jan-08 07:33N 39°48' W 075°24'7 6.5
2017-Jan-08 06:33N 39°51' W 075°17'4 4.2
2017-Jan-08 05:33N 39°54' W 075°12'0 0.0
2017-Jan-08 04:33N 39°54' W 075°12'0 0.0
2017-Jan-08 03:33N 39°54' W 075°12'1 1.0
2017-Jan-08 02:33N 39°55' W 075°13'3 2.7
2017-Jan-08 01:33N 39°52' W 075°13'0 0.3
2017-Jan-08 00:33N 39°52' W 075°13'2 2.2
2017-Jan-07 23:33N 39°51' W 075°16'0 0.0
2017-Jan-07 22:33N 39°51' W 075°16'4 4.3
2017-Jan-07 21:34N 39°53' W 075°12'  
Track history (hours):
 
Tides and Currents Weather Stations Pressure Air Temp Water Temp Dewpoint Dewpoint Depression Visibility Wind Speed Wind Dir Waves Ship Positions

Nanticoke

Owner: Vane Line Bunkering, Baltimore, MD. More information available from US FCC via Universal Licensing System and Coast Guard Vessel Documentation Center.

Last reported at 2017-Jan-17 20:34 UTC. Time now 2017-Jan-17 21:26 UTC.
Position N 39°54' W 075°12'.

Length 34 m; draft 4.7 m.

Type: Towing. MMSI: 367023480.

Date/timePositionNaut miles runAvg speedWind from/ knotsBaromVisibWave heightAir tempDewpointWater temp
2017-Jan-17 20:34N 39°54' W 075°12'1 0.6
2017-Jan-17 19:33N 39°54' W 075°12'0 0.0
2017-Jan-17 18:33N 39°54' W 075°12'0 0.0
2017-Jan-17 17:33N 39°54' W 075°12'0 0.0
2017-Jan-17 16:33N 39°54' W 075°12'0 0.0
2017-Jan-17 15:33N 39°54' W 075°12'1 1.3
2017-Jan-17 14:33N 39°52' W 075°12'6 5.8
2017-Jan-17 13:33N 39°51' W 075°20'8 7.9
2017-Jan-17 12:33N 39°46' W 075°28'8 8.0
2017-Jan-17 11:33N 39°39' W 075°33'7 7.5
2017-Jan-17 10:33N 39°32' W 075°33'8 7.6
2017-Jan-17 09:33N 39°24' W 075°30'9 8.8
2017-Jan-17 08:34N 39°18' W 075°23'9 9.1
2017-Jan-17 07:33N 39°10' W 075°16'9 9.1
2017-Jan-17 06:32N 39°03' W 075°10'9 8.8
2017-Jan-17 05:33N 38°54' W 075°05'8 8.2
2017-Jan-17 04:33N 38°48' W 074°58'9 9.2
2017-Jan-17 03:33N 38°53' W 074°48'9 8.7
2017-Jan-17 02:33N 38°60' W 074°41'9 8.5
2017-Jan-17 01:32N 39°05' W 074°33'9 8.7
2017-Jan-17 00:32N 39°12' W 074°26'9 8.5
2017-Jan-16 23:31N 39°19' W 074°18'8 8.2
2017-Jan-16 22:33N 39°25' W 074°12'8 8.2
2017-Jan-16 21:33N 39°32' W 074°07'8 8.3
2017-Jan-16 20:32N 39°40' W 074°02'8 8.3
2017-Jan-16 19:33N 39°47' W 073°58'20 8.4
2017-Jan-16 17:06N 40°07' W 073°55'4 8.1
2017-Jan-16 16:33N 40°12' W 073°54'11 7.7
2017-Jan-16 15:04N 40°23' W 073°54'4 7.8
2017-Jan-16 14:33N 40°27' W 073°54'6 6.3
2017-Jan-16 13:33N 40°31' W 074°00'7 6.6
2017-Jan-16 12:33N 40°38' W 074°03'7 6.8
2017-Jan-16 11:33N 40°43' W 073°58'8 7.6
2017-Jan-16 10:33N 40°48' W 073°50'7 6.9
2017-Jan-16 09:32N 40°53' W 073°43'40 9.1
2017-Jan-16 05:07N 41°07' W 072°53'610.5
2017-Jan-16 04:33N 41°08' W 072°45'1110.8
2017-Jan-16 03:33N 41°10' W 072°31'1211.5
2017-Jan-16 02:33N 41°12' W 072°16'96 7.8
2017-Jan-15 14:16N 42°13' W 070°37'710.0
2017-Jan-15 13:33N 42°18' W 070°43'9 8.9
2017-Jan-15 12:33N 42°23' W 070°53'7 7.1
2017-Jan-15 11:33N 42°22' W 071°03'2 1.5
2017-Jan-15 10:33N 42°23' W 071°01'0 0.1
2017-Jan-15 09:25N 42°23' W 071°02'0 0.0
2017-Jan-15 08:33N 42°23' W 071°02'0 0.0
2017-Jan-15 07:33N 42°23' W 071°02'0 0.0
2017-Jan-15 06:33N 42°23' W 071°02'0 0.0
2017-Jan-15 05:33N 42°23' W 071°02'0 0.0
2017-Jan-15 04:33N 42°23' W 071°02'0 0.0
2017-Jan-15 03:33N 42°23' W 071°02'0 0.0
2017-Jan-15 02:33N 42°23' W 071°02'0 0.0
2017-Jan-15 01:33N 42°23' W 071°02'0 0.0
2017-Jan-15 00:33N 42°23' W 071°02'0 0.0
2017-Jan-14 23:33N 42°23' W 071°02'0 0.0
2017-Jan-14 22:33N 42°23' W 071°02'0 0.0
2017-Jan-14 21:33N 42°23' W 071°02'3 2.8
2017-Jan-14 20:33N 42°20' W 071°00'7 6.5
2017-Jan-14 19:33N 42°24' W 070°53'5 5.3
2017-Jan-14 18:33N 42°21' W 070°46'8 7.6
2017-Jan-14 17:33N 42°15' W 070°40'96 4.0
2017-Jan-13 17:11N 41°12' W 072°18'5 8.1
2017-Jan-13 16:33N 41°11' W 072°24'7 7.3
2017-Jan-13 15:33N 41°10' W 072°34'7 6.8
2017-Jan-13 14:32N 41°08' W 072°43'47 2.9
2017-Jan-12 22:27N 40°54' W 073°42'7 8.1
2017-Jan-12 21:32N 40°48' W 073°49'7 6.9
2017-Jan-12 20:33N 40°46' W 073°57'6 6.0
2017-Jan-12 19:33N 40°41' W 074°01'2 1.9
2017-Jan-12 18:33N 40°39' W 074°03'0 0.0
2017-Jan-12 17:33N 40°39' W 074°03'0 0.0
2017-Jan-12 16:33N 40°39' W 074°03'0 0.1
2017-Jan-12 15:33N 40°40' W 074°03'0 0.1
2017-Jan-12 14:33N 40°40' W 074°03'0 0.0
2017-Jan-12 13:33N 40°40' W 074°03'0 0.0
2017-Jan-12 12:33N 40°40' W 074°03'0 0.0
2017-Jan-12 11:33N 40°40' W 074°03'0 0.0
2017-Jan-12 10:33N 40°40' W 074°03'0 0.2
2017-Jan-12 09:33N 40°39' W 074°03'0 0.0
2017-Jan-12 08:33N 40°39' W 074°03'0 0.0
2017-Jan-12 07:33N 40°39' W 074°03'0 0.0
2017-Jan-12 06:33N 40°39' W 074°03'0 0.0
2017-Jan-12 05:33N 40°39' W 074°03'0 0.0
2017-Jan-12 04:33N 40°39' W 074°03'0 0.0
2017-Jan-12 03:33N 40°39' W 074°03'0 0.2
2017-Jan-12 02:33N 40°40' W 074°03'0 0.0
2017-Jan-12 01:33N 40°40' W 074°03'0 0.0
2017-Jan-12 00:33N 40°40' W 074°03'0 0.1
2017-Jan-11 23:33N 40°40' W 074°03'0 0.1
2017-Jan-11 22:33N 40°40' W 074°03'0 0.2
2017-Jan-11 21:33N 40°39' W 074°03'0 0.1
2017-Jan-11 20:33N 40°39' W 074°03'0 0.0
2017-Jan-11 19:33N 40°39' W 074°03'0 0.0
2017-Jan-11 18:33N 40°39' W 074°03'0 0.0
2017-Jan-11 17:33N 40°39' W 074°03'0 0.0
2017-Jan-11 16:33N 40°39' W 074°03'0 0.1
2017-Jan-11 15:33N 40°39' W 074°03'0 0.1
2017-Jan-11 14:33N 40°40' W 074°03'0 0.1
2017-Jan-11 13:33N 40°40' W 074°03'0 0.0
2017-Jan-11 12:33N 40°40' W 074°03'0 0.0
2017-Jan-11 11:33N 40°40' W 074°03'0 0.0
2017-Jan-11 10:33N 40°40' W 074°03'0 0.0
2017-Jan-11 09:33N 40°40' W 074°03'0 0.0
2017-Jan-11 08:33N 40°40' W 074°03'0 0.2
2017-Jan-11 07:33N 40°39' W 074°03'0 0.1
2017-Jan-11 06:33N 40°39' W 074°03'0 0.0
2017-Jan-11 05:33N 40°39' W 074°03'0 0.0
2017-Jan-11 04:33N 40°39' W 074°03'0 0.0
2017-Jan-11 03:33N 40°39' W 074°03'2 1.6
2017-Jan-11 02:33N 40°38' W 074°03'4 4.3
2017-Jan-11 01:33N 40°34' W 074°02'6 6.0
2017-Jan-11 00:33N 40°30' W 073°56'7 6.5
2017-Jan-10 23:32N 40°23' W 073°53'40 7.9
2017-Jan-10 18:30N 39°44' W 073°59'8 7.8
2017-Jan-10 17:30N 39°37' W 074°03'9 7.7
2017-Jan-10 16:21N 39°29' W 074°09'7 7.7
2017-Jan-10 15:26N 39°23' W 074°13'7 7.6
2017-Jan-10 14:30N 39°18' W 074°19'7 7.7
2017-Jan-10 13:33N 39°12' W 074°25'8 7.8
2017-Jan-10 12:32N 39°06' W 074°32'8 7.5
2017-Jan-10 11:27N 39°01' W 074°40'21 4.2
2017-Jan-10 06:31N 38°55' W 075°05'8 8.0
2017-Jan-10 05:33N 39°02' W 075°10'9 9.4
2017-Jan-10 04:33N 39°10' W 075°16'10 9.9
2017-Jan-10 03:33N 39°18' W 075°23'9 8.9
2017-Jan-10 02:33N 39°25' W 075°31'7 6.9
2017-Jan-10 01:33N 39°31' W 075°33'6 6.2
2017-Jan-10 00:33N 39°38' W 075°35'6 6.5
2017-Jan-09 23:33N 39°43' W 075°30'7 7.4
2017-Jan-09 22:33N 39°49' W 075°24'5 4.5
2017-Jan-09 21:33N 39°51' W 075°19'6 5.8
2017-Jan-09 20:33N 39°54' W 075°12'0 0.0
2017-Jan-09 19:33N 39°54' W 075°12'0 0.0
2017-Jan-09 18:33N 39°54' W 075°12'0 0.0
2017-Jan-09 17:33N 39°54' W 075°12'0 0.0
2017-Jan-09 16:33N 39°54' W 075°12'0 0.0
2017-Jan-09 15:33N 39°54' W 075°12'0 0.0
2017-Jan-09 14:33N 39°54' W 075°12'0 0.0
2017-Jan-09 13:33N 39°54' W 075°12'0 0.0
2017-Jan-09 12:33N 39°54' W 075°12'0 0.0
2017-Jan-09 11:33N 39°54' W 075°12'0 0.0
2017-Jan-09 10:33N 39°54' W 075°12'0 0.0
2017-Jan-09 09:33N 39°54' W 075°12'0 0.0
2017-Jan-09 08:33N 39°54' W 075°12'0 0.0
2017-Jan-09 07:33N 39°54' W 075°12'4 3.6
2017-Jan-09 06:33N 39°51' W 075°15'7 7.1
2017-Jan-09 05:33N 39°49' W 075°24'1 0.5
2017-Jan-09 04:33N 39°48' W 075°24'0 0.1
2017-Jan-09 03:33N 39°48' W 075°24'0 0.0
2017-Jan-09 02:33N 39°48' W 075°24'0 0.0
2017-Jan-09 01:33N 39°48' W 075°24'0 0.0
2017-Jan-09 00:33N 39°48' W 075°24'0 0.0
2017-Jan-08 23:33N 39°48' W 075°24'0 0.0
2017-Jan-08 22:33N 39°48' W 075°24'0 0.0
2017-Jan-08 21:33N 39°48' W 075°24'0 0.0
2017-Jan-08 20:33N 39°48' W 075°24'0 0.1
2017-Jan-08 19:33N 39°48' W 075°24'0 0.0
2017-Jan-08 18:33N 39°48' W 075°24'0 0.0
2017-Jan-08 17:33N 39°48' W 075°24'0 0.0
2017-Jan-08 16:33N 39°48' W 075°24'0 0.0
2017-Jan-08 15:33N 39°48' W 075°24'0 0.0
2017-Jan-08 14:33N 39°48' W 075°24'0 0.0
2017-Jan-08 13:33N 39°48' W 075°24'0 0.0
2017-Jan-08 12:33N 39°48' W 075°24'0 0.0
2017-Jan-08 11:33N 39°48' W 075°24'0 0.0
2017-Jan-08 10:33N 39°48' W 075°24'0 0.0
2017-Jan-08 09:33N 39°48' W 075°24'0 0.1
2017-Jan-08 08:33N 39°48' W 075°24'0 0.1
2017-Jan-08 07:33N 39°48' W 075°24'7 6.5
2017-Jan-08 06:33N 39°51' W 075°17'4 4.2
2017-Jan-08 05:33N 39°54' W 075°12'0 0.0
2017-Jan-08 04:33N 39°54' W 075°12'0 0.0
2017-Jan-08 03:33N 39°54' W 075°12'1 1.0
2017-Jan-08 02:33N 39°55' W 075°13'3 2.7
2017-Jan-08 01:33N 39°52' W 075°13'0 0.3
2017-Jan-08 00:33N 39°52' W 075°13'2 2.2
2017-Jan-07 23:33N 39°51' W 075°16'0 0.0
2017-Jan-07 22:33N 39°51' W 075°16'4 4.3
2017-Jan-07 21:34N 39°53' W 075°12'  

Dump ship's entire track history